sensor_id;sensor_type;location;lat;lon;timestamp;P1;durP1;ratioP1;P2;durP2;ratioP2
19547;SDS011;9919;58.014;11.826;2023-06-01T00:01:27;1.10;;;1.00;;
19547;SDS011;9919;58.014;11.826;2023-06-01T00:03:33;0.85;;;0.85;;
19547;SDS011;9919;58.014;11.826;2023-06-01T00:05:37;0.85;;;0.85;;
19547;SDS011;9919;58.014;11.826;2023-06-01T00:07:38;0.73;;;0.73;;
19547;SDS011;9919;58.014;11.826;2023-06-01T00:09:41;1.00;;;1.00;;
19547;SDS011;9919;58.014;11.826;2023-06-01T00:11:43;1.05;;;0.95;;
19547;SDS011;9919;58.014;11.826;2023-06-01T00:13:45;0.95;;;0.88;;
19547;SDS011;9919;58.014;11.826;2023-06-01T00:15:48;1.30;;;1.20;;
19547;SDS011;9919;58.014;11.826;2023-06-01T00:17:51;1.05;;;0.90;;
19547;SDS011;9919;58.014;11.826;2023-06-01T00:19:52;1.08;;;0.95;;
19547;SDS011;9919;58.014;11.826;2023-06-01T00:21:55;1.15;;;0.90;;
19547;SDS011;9919;58.014;11.826;2023-06-01T00:24:00;2.00;;;1.10;;
19547;SDS011;9919;58.014;11.826;2023-06-01T00:26:02;1.20;;;0.88;;
19547;SDS011;9919;58.014;11.826;2023-06-01T00:28:04;0.70;;;0.70;;
19547;SDS011;9919;58.014;11.826;2023-06-01T00:30:06;1.50;;;1.33;;
19547;SDS011;9919;58.014;11.826;2023-06-01T00:32:08;1.13;;;1.00;;
19547;SDS011;9919;58.014;11.826;2023-06-01T00:34:10;1.00;;;1.00;;
19547;SDS011;9919;58.014;11.826;2023-06-01T00:36:12;1.23;;;1.00;;
19547;SDS011;9919;58.014;11.826;2023-06-01T00:38:14;2.25;;;0.68;;
19547;SDS011;9919;58.014;11.826;2023-06-01T00:40:15;0.93;;;0.93;;
19547;SDS011;9919;58.014;11.826;2023-06-01T00:42:18;2.15;;;0.88;;
19547;SDS011;9919;58.014;11.826;2023-06-01T00:44:20;0.88;;;0.88;;
19547;SDS011;9919;58.014;11.826;2023-06-01T00:46:21;1.00;;;1.00;;
19547;SDS011;9919;58.014;11.826;2023-06-01T00:48:23;1.10;;;1.10;;
19547;SDS011;9919;58.014;11.826;2023-06-01T00:50:26;1.80;;;1.25;;
19547;SDS011;9919;58.014;11.826;2023-06-01T00:52:29;1.45;;;1.17;;
19547;SDS011;9919;58.014;11.826;2023-06-01T00:54:31;0.85;;;0.85;;
19547;SDS011;9919;58.014;11.826;2023-06-01T00:56:32;1.45;;;1.13;;
19547;SDS011;9919;58.014;11.826;2023-06-01T00:58:36;1.30;;;1.20;;
19547;SDS011;9919;58.014;11.826;2023-06-01T01:00:38;1.00;;;0.90;;
19547;SDS011;9919;58.014;11.826;2023-06-01T01:02:40;0.85;;;0.85;;
19547;SDS011;9919;58.014;11.826;2023-06-01T01:04:44;1.58;;;1.20;;
19547;SDS011;9919;58.014;11.826;2023-06-01T01:07:08;1.15;;;1.10;;
19547;SDS011;9919;58.014;11.826;2023-06-01T01:14:40;0.93;;;0.93;;
19547;SDS011;9919;58.014;11.826;2023-06-01T01:17:21;1.00;;;1.00;;
19547;SDS011;9919;58.014;11.826;2023-06-01T01:19:55;1.23;;;1.13;;
19547;SDS011;9919;58.014;11.826;2023-06-01T01:29:06;1.40;;;0.93;;
19547;SDS011;9919;58.014;11.826;2023-06-01T01:31:11;1.42;;;1.25;;
19547;SDS011;9919;58.014;11.826;2023-06-01T01:33:13;1.20;;;1.10;;
19547;SDS011;9919;58.014;11.826;2023-06-01T01:35:16;1.63;;;1.05;;
19547;SDS011;9919;58.014;11.826;2023-06-01T01:37:20;2.67;;;1.35;;
19547;SDS011;9919;58.014;11.826;2023-06-01T01:39:22;0.95;;;0.95;;
19547;SDS011;9919;58.014;11.826;2023-06-01T01:41:24;2.50;;;1.20;;
19547;SDS011;9919;58.014;11.826;2023-06-01T01:43:26;0.80;;;0.80;;
19547;SDS011;9919;58.014;11.826;2023-06-01T01:45:27;1.65;;;1.10;;
19547;SDS011;9919;58.014;11.826;2023-06-01T01:47:36;1.35;;;1.17;;
19547;SDS011;9919;58.014;11.826;2023-06-01T01:49:43;1.42;;;1.20;;
19547;SDS011;9919;58.014;11.826;2023-06-01T01:54:22;1.92;;;1.02;;
19547;SDS011;9919;58.014;11.826;2023-06-01T01:56:24;2.00;;;1.00;;
19547;SDS011;9919;58.014;11.826;2023-06-01T01:58:26;1.17;;;0.77;;
19547;SDS011;9919;58.014;11.826;2023-06-01T02:00:28;1.40;;;1.10;;
19547;SDS011;9919;58.014;11.826;2023-06-01T02:02:30;0.88;;;0.88;;
19547;SDS011;9919;58.014;11.826;2023-06-01T02:04:32;0.90;;;0.90;;
19547;SDS011;9919;58.014;11.826;2023-06-01T02:06:38;0.98;;;0.93;;
19547;SDS011;9919;58.014;11.826;2023-06-01T02:08:39;1.33;;;1.20;;
19547;SDS011;9919;58.014;11.826;2023-06-01T02:10:41;1.58;;;1.30;;
19547;SDS011;9919;58.014;11.826;2023-06-01T02:12:43;1.25;;;1.00;;
19547;SDS011;9919;58.014;11.826;2023-06-01T02:14:44;1.55;;;1.38;;
19547;SDS011;9919;58.014;11.826;2023-06-01T02:16:46;1.20;;;1.08;;
19547;SDS011;9919;58.014;11.826;2023-06-01T02:18:48;1.38;;;1.02;;
19547;SDS011;9919;58.014;11.826;2023-06-01T02:20:50;2.58;;;0.85;;
19547;SDS011;9919;58.014;11.826;2023-06-01T02:22:51;1.08;;;1.00;;
19547;SDS011;9919;58.014;11.826;2023-06-01T02:24:53;1.63;;;1.02;;
19547;SDS011;9919;58.014;11.826;2023-06-01T02:26:55;1.17;;;1.08;;
19547;SDS011;9919;58.014;11.826;2023-06-01T02:28:57;1.65;;;1.17;;
19547;SDS011;9919;58.014;11.826;2023-06-01T02:30:59;1.52;;;1.08;;
19547;SDS011;9919;58.014;11.826;2023-06-01T02:33:01;1.40;;;1.30;;
19547;SDS011;9919;58.014;11.826;2023-06-01T02:35:03;1.10;;;1.10;;
19547;SDS011;9919;58.014;11.826;2023-06-01T02:37:06;1.00;;;1.00;;
19547;SDS011;9919;58.014;11.826;2023-06-01T02:39:07;0.80;;;0.80;;
19547;SDS011;9919;58.014;11.826;2023-06-01T02:41:09;1.10;;;1.05;;
19547;SDS011;9919;58.014;11.826;2023-06-01T02:43:11;0.90;;;0.90;;
19547;SDS011;9919;58.014;11.826;2023-06-01T02:45:13;0.90;;;0.90;;
19547;SDS011;9919;58.014;11.826;2023-06-01T02:47:16;2.33;;;1.05;;
19547;SDS011;9919;58.014;11.826;2023-06-01T02:49:18;0.90;;;0.90;;
19547;SDS011;9919;58.014;11.826;2023-06-01T02:51:20;1.10;;;1.00;;
19547;SDS011;9919;58.014;11.826;2023-06-01T02:53:21;0.93;;;0.88;;
19547;SDS011;9919;58.014;11.826;2023-06-01T02:55:23;0.93;;;0.93;;
19547;SDS011;9919;58.014;11.826;2023-06-01T02:57:25;1.00;;;1.00;;
19547;SDS011;9919;58.014;11.826;2023-06-01T02:59:26;1.77;;;1.38;;
19547;SDS011;9919;58.014;11.826;2023-06-01T03:01:29;1.42;;;1.17;;
19547;SDS011;9919;58.014;11.826;2023-06-01T03:03:35;1.10;;;1.10;;
19547;SDS011;9919;58.014;11.826;2023-06-01T03:05:36;1.20;;;1.10;;
19547;SDS011;9919;58.014;11.826;2023-06-01T03:07:38;1.48;;;0.90;;
19547;SDS011;9919;58.014;11.826;2023-06-01T03:09:41;3.83;;;1.02;;
19547;SDS011;9919;58.014;11.826;2023-06-01T03:11:42;1.75;;;1.00;;
19547;SDS011;9919;58.014;11.826;2023-06-01T03:13:43;1.00;;;1.00;;
19547;SDS011;9919;58.014;11.826;2023-06-01T03:15:45;1.33;;;1.02;;
19547;SDS011;9919;58.014;11.826;2023-06-01T03:17:46;1.50;;;1.40;;
19547;SDS011;9919;58.014;11.826;2023-06-01T03:19:48;0.90;;;0.90;;
19547;SDS011;9919;58.014;11.826;2023-06-01T03:21:50;0.75;;;0.75;;
19547;SDS011;9919;58.014;11.826;2023-06-01T03:23:52;1.83;;;1.15;;
19547;SDS011;9919;58.014;11.826;2023-06-01T03:25:53;1.15;;;0.85;;
19547;SDS011;9919;58.014;11.826;2023-06-01T03:27:55;4.68;;;1.25;;
19547;SDS011;9919;58.014;11.826;2023-06-01T03:29:57;1.25;;;1.10;;
19547;SDS011;9919;58.014;11.826;2023-06-01T03:31:58;3.53;;;1.33;;
19547;SDS011;9919;58.014;11.826;2023-06-01T03:34:00;0.73;;;0.73;;
19547;SDS011;9919;58.014;11.826;2023-06-01T03:36:02;2.63;;;0.98;;
19547;SDS011;9919;58.014;11.826;2023-06-01T03:38:04;1.90;;;1.13;;
19547;SDS011;9919;58.014;11.826;2023-06-01T03:40:06;2.72;;;1.23;;
19547;SDS011;9919;58.014;11.826;2023-06-01T03:42:11;1.40;;;1.23;;
19547;SDS011;9919;58.014;11.826;2023-06-01T03:44:12;1.08;;;0.95;;
19547;SDS011;9919;58.014;11.826;2023-06-01T03:46:14;0.63;;;0.63;;
19547;SDS011;9919;58.014;11.826;2023-06-01T03:48:16;1.45;;;1.02;;
19547;SDS011;9919;58.014;11.826;2023-06-01T03:50:17;1.98;;;0.85;;
19547;SDS011;9919;58.014;11.826;2023-06-01T03:52:19;0.73;;;0.73;;
19547;SDS011;9919;58.014;11.826;2023-06-01T03:54:20;1.17;;;1.08;;
19547;SDS011;9919;58.014;11.826;2023-06-01T03:56:23;0.88;;;0.88;;
19547;SDS011;9919;58.014;11.826;2023-06-01T03:58:27;1.75;;;1.35;;
19547;SDS011;9919;58.014;11.826;2023-06-01T04:00:28;1.13;;;1.05;;
19547;SDS011;9919;58.014;11.826;2023-06-01T04:02:30;1.00;;;0.88;;
19547;SDS011;9919;58.014;11.826;2023-06-01T04:04:32;0.63;;;0.63;;
19547;SDS011;9919;58.014;11.826;2023-06-01T04:06:34;1.30;;;1.17;;
19547;SDS011;9919;58.014;11.826;2023-06-01T04:08:36;1.08;;;0.98;;
19547;SDS011;9919;58.014;11.826;2023-06-01T04:10:42;1.00;;;0.95;;
19547;SDS011;9919;58.014;11.826;2023-06-01T04:12:45;1.42;;;1.33;;
19547;SDS011;9919;58.014;11.826;2023-06-01T04:14:48;0.90;;;0.90;;
19547;SDS011;9919;58.014;11.826;2023-06-01T04:16:50;0.80;;;0.70;;
19547;SDS011;9919;58.014;11.826;2023-06-01T04:18:52;1.13;;;1.10;;
19547;SDS011;9919;58.014;11.826;2023-06-01T04:20:54;1.05;;;1.05;;
19547;SDS011;9919;58.014;11.826;2023-06-01T04:22:55;0.70;;;0.70;;
19547;SDS011;9919;58.014;11.826;2023-06-01T04:24:57;0.95;;;0.88;;
19547;SDS011;9919;58.014;11.826;2023-06-01T04:27:00;2.83;;;0.70;;
19547;SDS011;9919;58.014;11.826;2023-06-01T04:29:02;0.95;;;0.80;;
19547;SDS011;9919;58.014;11.826;2023-06-01T04:31:04;0.75;;;0.75;;
19547;SDS011;9919;58.014;11.826;2023-06-01T04:33:07;1.15;;;0.80;;
19547;SDS011;9919;58.014;11.826;2023-06-01T04:35:10;2.00;;;0.82;;
19547;SDS011;9919;58.014;11.826;2023-06-01T04:37:12;0.60;;;0.60;;
19547;SDS011;9919;58.014;11.826;2023-06-01T04:39:15;0.85;;;0.80;;
19547;SDS011;9919;58.014;11.826;2023-06-01T04:41:17;0.52;;;0.52;;
19547;SDS011;9919;58.014;11.826;2023-06-01T04:43:20;1.77;;;0.82;;
19547;SDS011;9919;58.014;11.826;2023-06-01T04:45:24;0.38;;;0.38;;
19547;SDS011;9919;58.014;11.826;2023-06-01T04:47:26;0.70;;;0.70;;
19547;SDS011;9919;58.014;11.826;2023-06-01T04:49:28;0.77;;;0.77;;
19547;SDS011;9919;58.014;11.826;2023-06-01T04:51:30;0.60;;;0.60;;
19547;SDS011;9919;58.014;11.826;2023-06-01T04:53:33;0.60;;;0.60;;
19547;SDS011;9919;58.014;11.826;2023-06-01T04:55:35;0.63;;;0.63;;
19547;SDS011;9919;58.014;11.826;2023-06-01T04:57:38;0.60;;;0.60;;
19547;SDS011;9919;58.014;11.826;2023-06-01T04:59:42;0.70;;;0.70;;
19547;SDS011;9919;58.014;11.826;2023-06-01T05:01:45;0.80;;;0.80;;
19547;SDS011;9919;58.014;11.826;2023-06-01T05:03:46;0.70;;;0.55;;
19547;SDS011;9919;58.014;11.826;2023-06-01T05:05:48;0.57;;;0.57;;
19547;SDS011;9919;58.014;11.826;2023-06-01T05:07:50;0.90;;;0.90;;
19547;SDS011;9919;58.014;11.826;2023-06-01T05:09:53;0.82;;;0.82;;
19547;SDS011;9919;58.014;11.826;2023-06-01T05:11:55;0.50;;;0.50;;
19547;SDS011;9919;58.014;11.826;2023-06-01T05:13:58;0.57;;;0.57;;
19547;SDS011;9919;58.014;11.826;2023-06-01T05:16:03;0.77;;;0.63;;
19547;SDS011;9919;58.014;11.826;2023-06-01T05:18:04;0.98;;;0.73;;
19547;SDS011;9919;58.014;11.826;2023-06-01T05:20:08;0.50;;;0.50;;
19547;SDS011;9919;58.014;11.826;2023-06-01T05:22:11;0.50;;;0.50;;
19547;SDS011;9919;58.014;11.826;2023-06-01T05:24:14;0.52;;;0.52;;
19547;SDS011;9919;58.014;11.826;2023-06-01T05:26:16;1.38;;;0.63;;
19547;SDS011;9919;58.014;11.826;2023-06-01T05:28:17;0.50;;;0.50;;
19547;SDS011;9919;58.014;11.826;2023-06-01T05:30:20;0.70;;;0.70;;
19547;SDS011;9919;58.014;11.826;2023-06-01T05:32:22;0.43;;;0.43;;
19547;SDS011;9919;58.014;11.826;2023-06-01T05:34:24;0.90;;;0.63;;
19547;SDS011;9919;58.014;11.826;2023-06-01T05:36:26;0.98;;;0.57;;
19547;SDS011;9919;58.014;11.826;2023-06-01T05:38:28;0.57;;;0.57;;
19547;SDS011;9919;58.014;11.826;2023-06-01T05:40:31;0.82;;;0.82;;
19547;SDS011;9919;58.014;11.826;2023-06-01T05:42:32;0.73;;;0.73;;
19547;SDS011;9919;58.014;11.826;2023-06-01T05:44:36;2.95;;;0.40;;
19547;SDS011;9919;58.014;11.826;2023-06-01T05:46:37;0.65;;;0.65;;
19547;SDS011;9919;58.014;11.826;2023-06-01T05:48:39;0.40;;;0.40;;
19547;SDS011;9919;58.014;11.826;2023-06-01T05:50:41;0.90;;;0.90;;
19547;SDS011;9919;58.014;11.826;2023-06-01T05:52:42;0.55;;;0.50;;
19547;SDS011;9919;58.014;11.826;2023-06-01T05:54:44;0.52;;;0.52;;
19547;SDS011;9919;58.014;11.826;2023-06-01T05:56:45;0.65;;;0.65;;
19547;SDS011;9919;58.014;11.826;2023-06-01T05:58:47;0.32;;;0.32;;
19547;SDS011;9919;58.014;11.826;2023-06-01T06:00:53;1.45;;;0.73;;
19547;SDS011;9919;58.014;11.826;2023-06-01T06:02:54;0.82;;;0.82;;
19547;SDS011;9919;58.014;11.826;2023-06-01T06:04:56;0.47;;;0.47;;
19547;SDS011;9919;58.014;11.826;2023-06-01T06:06:57;1.65;;;0.60;;
19547;SDS011;9919;58.014;11.826;2023-06-01T06:08:59;0.63;;;0.45;;
19547;SDS011;9919;58.014;11.826;2023-06-01T06:11:02;1.08;;;0.30;;
19547;SDS011;9919;58.014;11.826;2023-06-01T06:13:03;0.50;;;0.50;;
19547;SDS011;9919;58.014;11.826;2023-06-01T06:15:05;0.45;;;0.45;;
19547;SDS011;9919;58.014;11.826;2023-06-01T06:17:06;0.52;;;0.52;;
19547;SDS011;9919;58.014;11.826;2023-06-01T06:19:08;0.22;;;0.22;;
19547;SDS011;9919;58.014;11.826;2023-06-01T06:21:09;0.77;;;0.60;;
19547;SDS011;9919;58.014;11.826;2023-06-01T06:23:11;0.52;;;0.52;;
19547;SDS011;9919;58.014;11.826;2023-06-01T06:25:12;0.22;;;0.22;;
19547;SDS011;9919;58.014;11.826;2023-06-01T06:27:14;3.10;;;0.47;;
19547;SDS011;9919;58.014;11.826;2023-06-01T06:29:15;3.92;;;0.75;;
19547;SDS011;9919;58.014;11.826;2023-06-01T06:31:17;0.40;;;0.40;;
19547;SDS011;9919;58.014;11.826;2023-06-01T06:33:20;0.57;;;0.57;;
19547;SDS011;9919;58.014;11.826;2023-06-01T06:35:21;0.65;;;0.65;;
19547;SDS011;9919;58.014;11.826;2023-06-01T06:37:22;1.17;;;0.68;;
19547;SDS011;9919;58.014;11.826;2023-06-01T06:39:25;0.77;;;0.50;;
19547;SDS011;9919;58.014;11.826;2023-06-01T06:41:27;0.38;;;0.38;;
19547;SDS011;9919;58.014;11.826;2023-06-01T06:43:29;0.75;;;0.50;;
19547;SDS011;9919;58.014;11.826;2023-06-01T06:45:31;0.60;;;0.60;;
19547;SDS011;9919;58.014;11.826;2023-06-01T06:47:33;0.32;;;0.32;;
19547;SDS011;9919;58.014;11.826;2023-06-01T06:49:34;0.98;;;0.52;;
19547;SDS011;9919;58.014;11.826;2023-06-01T06:51:37;0.30;;;0.30;;
19547;SDS011;9919;58.014;11.826;2023-06-01T06:53:38;0.85;;;0.43;;
19547;SDS011;9919;58.014;11.826;2023-06-01T06:55:39;0.45;;;0.40;;
19547;SDS011;9919;58.014;11.826;2023-06-01T06:57:42;0.50;;;0.50;;
19547;SDS011;9919;58.014;11.826;2023-06-01T06:59:44;0.50;;;0.50;;
19547;SDS011;9919;58.014;11.826;2023-06-01T07:01:46;0.30;;;0.30;;
19547;SDS011;9919;58.014;11.826;2023-06-01T07:03:47;0.40;;;0.40;;
19547;SDS011;9919;58.014;11.826;2023-06-01T07:05:49;0.45;;;0.45;;
19547;SDS011;9919;58.014;11.826;2023-06-01T07:07:50;0.30;;;0.30;;
19547;SDS011;9919;58.014;11.826;2023-06-01T07:09:52;0.35;;;0.35;;
19547;SDS011;9919;58.014;11.826;2023-06-01T07:11:53;0.40;;;0.40;;
19547;SDS011;9919;58.014;11.826;2023-06-01T07:13:54;0.35;;;0.35;;
19547;SDS011;9919;58.014;11.826;2023-06-01T07:15:57;0.47;;;0.40;;
19547;SDS011;9919;58.014;11.826;2023-06-01T07:17:58;0.80;;;0.45;;
19547;SDS011;9919;58.014;11.826;2023-06-01T07:20:01;0.35;;;0.35;;
19547;SDS011;9919;58.014;11.826;2023-06-01T07:22:06;0.60;;;0.60;;
19547;SDS011;9919;58.014;11.826;2023-06-01T07:24:08;0.43;;;0.43;;
19547;SDS011;9919;58.014;11.826;2023-06-01T07:26:12;0.40;;;0.40;;
19547;SDS011;9919;58.014;11.826;2023-06-01T07:28:14;0.20;;;0.20;;
19547;SDS011;9919;58.014;11.826;2023-06-01T07:30:16;0.52;;;0.52;;
19547;SDS011;9919;58.014;11.826;2023-06-01T07:32:19;0.40;;;0.40;;
19547;SDS011;9919;58.014;11.826;2023-06-01T07:34:23;0.85;;;0.75;;
19547;SDS011;9919;58.014;11.826;2023-06-01T07:36:25;0.50;;;0.50;;
19547;SDS011;9919;58.014;11.826;2023-06-01T07:38:27;0.60;;;0.60;;
19547;SDS011;9919;58.014;11.826;2023-06-01T07:40:31;0.65;;;0.65;;
19547;SDS011;9919;58.014;11.826;2023-06-01T07:42:34;0.63;;;0.40;;
19547;SDS011;9919;58.014;11.826;2023-06-01T07:44:35;0.40;;;0.40;;
19547;SDS011;9919;58.014;11.826;2023-06-01T07:46:37;0.40;;;0.40;;
19547;SDS011;9919;58.014;11.826;2023-06-01T07:48:38;0.82;;;0.82;;
19547;SDS011;9919;58.014;11.826;2023-06-01T07:50:40;0.30;;;0.30;;
19547;SDS011;9919;58.014;11.826;2023-06-01T07:52:42;0.45;;;0.45;;
19547;SDS011;9919;58.014;11.826;2023-06-01T07:54:44;0.70;;;0.70;;
19547;SDS011;9919;58.014;11.826;2023-06-01T07:56:45;0.43;;;0.43;;
19547;SDS011;9919;58.014;11.826;2023-06-01T07:58:47;0.50;;;0.50;;
19547;SDS011;9919;58.014;11.826;2023-06-01T08:00:49;0.50;;;0.50;;
19547;SDS011;9919;58.014;11.826;2023-06-01T08:02:51;1.08;;;0.70;;
19547;SDS011;9919;58.014;11.826;2023-06-01T08:04:53;1.15;;;0.47;;
19547;SDS011;9919;58.014;11.826;2023-06-01T08:06:56;0.50;;;0.50;;
19547;SDS011;9919;58.014;11.826;2023-06-01T08:08:58;0.60;;;0.60;;
19547;SDS011;9919;58.014;11.826;2023-06-01T08:11:00;0.50;;;0.50;;
19547;SDS011;9919;58.014;11.826;2023-06-01T08:13:02;1.25;;;0.70;;
19547;SDS011;9919;58.014;11.826;2023-06-01T08:15:03;0.60;;;0.60;;
19547;SDS011;9919;58.014;11.826;2023-06-01T08:17:05;0.57;;;0.57;;
19547;SDS011;9919;58.014;11.826;2023-06-01T08:19:07;0.73;;;0.70;;
19547;SDS011;9919;58.014;11.826;2023-06-01T08:21:08;0.63;;;0.38;;
19547;SDS011;9919;58.014;11.826;2023-06-01T08:23:10;0.55;;;0.55;;
19547;SDS011;9919;58.014;11.826;2023-06-01T08:25:11;0.60;;;0.60;;
19547;SDS011;9919;58.014;11.826;2023-06-01T08:27:21;0.70;;;0.70;;
19547;SDS011;9919;58.014;11.826;2023-06-01T08:29:23;0.60;;;0.60;;
19547;SDS011;9919;58.014;11.826;2023-06-01T08:31:24;3.00;;;0.63;;
19547;SDS011;9919;58.014;11.826;2023-06-01T08:33:28;0.70;;;0.70;;
19547;SDS011;9919;58.014;11.826;2023-06-01T08:35:29;0.68;;;0.68;;
19547;SDS011;9919;58.014;11.826;2023-06-01T08:37:33;0.55;;;0.55;;
19547;SDS011;9919;58.014;11.826;2023-06-01T08:39:35;0.50;;;0.50;;
19547;SDS011;9919;58.014;11.826;2023-06-01T08:41:40;1.48;;;0.90;;
19547;SDS011;9919;58.014;11.826;2023-06-01T08:43:53;0.57;;;0.57;;
19547;SDS011;9919;58.014;11.826;2023-06-01T08:46:00;2.35;;;1.17;;
19547;SDS011;9919;58.014;11.826;2023-06-01T08:48:01;1.55;;;1.08;;
19547;SDS011;9919;58.014;11.826;2023-06-01T08:50:04;5.03;;;1.20;;
19547;SDS011;9919;58.014;11.826;2023-06-01T08:52:18;3.40;;;1.15;;
19547;SDS011;9919;58.014;11.826;2023-06-01T08:54:23;6.65;;;2.10;;
19547;SDS011;9919;58.014;11.826;2023-06-01T08:56:26;2.55;;;1.15;;
19547;SDS011;9919;58.014;11.826;2023-06-01T08:58:28;2.47;;;1.00;;
19547;SDS011;9919;58.014;11.826;2023-06-01T09:00:31;1.60;;;1.50;;
19547;SDS011;9919;58.014;11.826;2023-06-01T09:02:33;3.83;;;1.27;;
19547;SDS011;9919;58.014;11.826;2023-06-01T09:04:36;1.90;;;1.25;;
19547;SDS011;9919;58.014;11.826;2023-06-01T09:06:42;2.00;;;1.40;;
19547;SDS011;9919;58.014;11.826;2023-06-01T09:08:44;3.75;;;1.42;;
19547;SDS011;9919;58.014;11.826;2023-06-01T09:10:46;1.55;;;1.45;;
19547;SDS011;9919;58.014;11.826;2023-06-01T09:12:51;3.05;;;1.50;;
19547;SDS011;9919;58.014;11.826;2023-06-01T09:15:15;3.25;;;1.83;;
19547;SDS011;9919;58.014;11.826;2023-06-01T09:17:23;1.33;;;1.00;;
19547;SDS011;9919;58.014;11.826;2023-06-01T09:19:24;1.70;;;1.52;;
19547;SDS011;9919;58.014;11.826;2023-06-01T09:21:57;1.63;;;1.52;;
19547;SDS011;9919;58.014;11.826;2023-06-01T09:24:32;1.13;;;1.02;;
19547;SDS011;9919;58.014;11.826;2023-06-01T09:26:26;1.13;;;1.05;;
19547;SDS011;9919;58.014;11.826;2023-06-01T09:28:28;1.77;;;1.30;;
19547;SDS011;9919;58.014;11.826;2023-06-01T09:30:42;4.68;;;1.52;;
19547;SDS011;9919;58.014;11.826;2023-06-01T09:32:45;1.33;;;1.13;;
19547;SDS011;9919;58.014;11.826;2023-06-01T09:34:53;2.45;;;1.30;;
19547;SDS011;9919;58.014;11.826;2023-06-01T09:36:56;1.65;;;1.33;;
19547;SDS011;9919;58.014;11.826;2023-06-01T09:39:02;1.75;;;1.33;;
19547;SDS011;9919;58.014;11.826;2023-06-01T09:41:13;1.50;;;1.40;;
19547;SDS011;9919;58.014;11.826;2023-06-01T09:43:18;2.25;;;1.05;;
19547;SDS011;9919;58.014;11.826;2023-06-01T09:45:21;1.17;;;0.98;;
19547;SDS011;9919;58.014;11.826;2023-06-01T09:47:23;1.42;;;1.33;;
19547;SDS011;9919;58.014;11.826;2023-06-01T09:49:30;1.30;;;1.20;;
19547;SDS011;9919;58.014;11.826;2023-06-01T09:51:36;2.25;;;1.20;;
19547;SDS011;9919;58.014;11.826;2023-06-01T09:53:41;2.97;;;1.00;;
19547;SDS011;9919;58.014;11.826;2023-06-01T09:55:56;1.85;;;1.00;;
19547;SDS011;9919;58.014;11.826;2023-06-01T09:58:16;1.27;;;1.10;;
19547;SDS011;9919;58.014;11.826;2023-06-01T10:00:22;1.15;;;0.93;;
19547;SDS011;9919;58.014;11.826;2023-06-01T10:02:24;0.40;;;0.40;;
19547;SDS011;9919;58.014;11.826;2023-06-01T10:04:26;1.33;;;1.10;;
19547;SDS011;9919;58.014;11.826;2023-06-01T10:06:28;0.80;;;0.80;;
19547;SDS011;9919;58.014;11.826;2023-06-01T10:08:36;1.88;;;0.82;;
19547;SDS011;9919;58.014;11.826;2023-06-01T10:10:39;3.78;;;0.98;;
19547;SDS011;9919;58.014;11.826;2023-06-01T10:12:44;1.00;;;0.70;;
19547;SDS011;9919;58.014;11.826;2023-06-01T10:14:45;0.93;;;0.93;;
19547;SDS011;9919;58.014;11.826;2023-06-01T10:16:48;0.77;;;0.60;;
19547;SDS011;9919;58.014;11.826;2023-06-01T10:18:51;1.85;;;0.98;;
19547;SDS011;9919;58.014;11.826;2023-06-01T10:20:52;0.70;;;0.70;;
19547;SDS011;9919;58.014;11.826;2023-06-01T10:22:54;0.50;;;0.50;;
19547;SDS011;9919;58.014;11.826;2023-06-01T10:24:57;1.00;;;1.00;;
19547;SDS011;9919;58.014;11.826;2023-06-01T10:29:01;0.80;;;0.80;;
19547;SDS011;9919;58.014;11.826;2023-06-01T10:34:08;1.75;;;0.73;;
19547;SDS011;9919;58.014;11.826;2023-06-01T10:36:02;0.70;;;0.70;;
19547;SDS011;9919;58.014;11.826;2023-06-01T10:46:40;1.40;;;0.70;;
19547;SDS011;9919;58.014;11.826;2023-06-01T10:48:51;1.00;;;0.63;;
19547;SDS011;9919;58.014;11.826;2023-06-01T10:55:27;0.60;;;0.60;;
19547;SDS011;9919;58.014;11.826;2023-06-01T10:57:28;1.35;;;0.73;;
19547;SDS011;9919;58.014;11.826;2023-06-01T10:59:30;0.60;;;0.60;;
19547;SDS011;9919;58.014;11.826;2023-06-01T11:01:33;0.40;;;0.40;;
19547;SDS011;9919;58.014;11.826;2023-06-01T11:03:47;0.60;;;0.60;;
19547;SDS011;9919;58.014;11.826;2023-06-01T11:05:50;0.40;;;0.40;;
19547;SDS011;9919;58.014;11.826;2023-06-01T11:07:52;0.50;;;0.50;;
19547;SDS011;9919;58.014;11.826;2023-06-01T11:09:54;0.63;;;0.63;;
19547;SDS011;9919;58.014;11.826;2023-06-01T11:11:57;1.27;;;0.88;;
19547;SDS011;9919;58.014;11.826;2023-06-01T11:14:10;1.25;;;0.60;;
19547;SDS011;9919;58.014;11.826;2023-06-01T11:21:01;1.23;;;0.40;;
19547;SDS011;9919;58.014;11.826;2023-06-01T11:23:03;0.60;;;0.40;;
19547;SDS011;9919;58.014;11.826;2023-06-01T11:25:06;0.65;;;0.65;;
19547;SDS011;9919;58.014;11.826;2023-06-01T11:27:10;0.45;;;0.40;;
19547;SDS011;9919;58.014;11.826;2023-06-01T11:29:13;0.20;;;0.20;;
19547;SDS011;9919;58.014;11.826;2023-06-01T11:31:16;0.50;;;0.40;;
19547;SDS011;9919;58.014;11.826;2023-06-01T11:33:18;0.60;;;0.60;;
19547;SDS011;9919;58.014;11.826;2023-06-01T11:35:20;1.23;;;0.60;;
19547;SDS011;9919;58.014;11.826;2023-06-01T11:37:22;0.93;;;0.47;;
19547;SDS011;9919;58.014;11.826;2023-06-01T11:39:29;1.45;;;0.70;;
19547;SDS011;9919;58.014;11.826;2023-06-01T11:41:31;1.55;;;0.75;;
19547;SDS011;9919;58.014;11.826;2023-06-01T11:43:36;0.38;;;0.38;;
19547;SDS011;9919;58.014;11.826;2023-06-01T11:45:38;0.43;;;0.43;;
19547;SDS011;9919;58.014;11.826;2023-06-01T11:47:40;1.25;;;0.55;;
19547;SDS011;9919;58.014;11.826;2023-06-01T11:51:50;1.48;;;0.65;;
19547;SDS011;9919;58.014;11.826;2023-06-01T11:53:52;1.38;;;0.60;;
19547;SDS011;9919;58.014;11.826;2023-06-01T11:55:55;0.30;;;0.30;;
19547;SDS011;9919;58.014;11.826;2023-06-01T11:57:56;0.68;;;0.68;;
19547;SDS011;9919;58.014;11.826;2023-06-01T11:59:58;1.42;;;0.65;;
19547;SDS011;9919;58.014;11.826;2023-06-01T12:02:01;3.42;;;0.50;;
19547;SDS011;9919;58.014;11.826;2023-06-01T12:04:03;0.60;;;0.60;;
19547;SDS011;9919;58.014;11.826;2023-06-01T12:06:07;0.32;;;0.32;;
19547;SDS011;9919;58.014;11.826;2023-06-01T12:08:12;0.32;;;0.32;;
19547;SDS011;9919;58.014;11.826;2023-06-01T12:10:24;0.50;;;0.50;;
19547;SDS011;9919;58.014;11.826;2023-06-01T12:12:27;0.25;;;0.25;;
19547;SDS011;9919;58.014;11.826;2023-06-01T12:14:33;0.55;;;0.40;;
19547;SDS011;9919;58.014;11.826;2023-06-01T12:18:56;0.32;;;0.32;;
19547;SDS011;9919;58.014;11.826;2023-06-01T12:20:58;0.22;;;0.22;;
19547;SDS011;9919;58.014;11.826;2023-06-01T12:23:00;0.70;;;0.70;;
19547;SDS011;9919;58.014;11.826;2023-06-01T12:25:06;0.20;;;0.20;;
19547;SDS011;9919;58.014;11.826;2023-06-01T12:27:14;0.40;;;0.40;;
19547;SDS011;9919;58.014;11.826;2023-06-01T12:31:39;0.30;;;0.30;;
19547;SDS011;9919;58.014;11.826;2023-06-01T12:33:55;0.38;;;0.38;;
19547;SDS011;9919;58.014;11.826;2023-06-01T12:35:58;0.20;;;0.20;;
19547;SDS011;9919;58.014;11.826;2023-06-01T12:40:07;0.40;;;0.40;;
19547;SDS011;9919;58.014;11.826;2023-06-01T12:42:09;0.47;;;0.47;;
19547;SDS011;9919;58.014;11.826;2023-06-01T12:44:17;0.30;;;0.28;;
19547;SDS011;9919;58.014;11.826;2023-06-01T12:46:20;0.30;;;0.30;;
19547;SDS011;9919;58.014;11.826;2023-06-01T12:50:42;2.63;;;0.55;;
19547;SDS011;9919;58.014;11.826;2023-06-01T12:52:45;0.32;;;0.30;;
19547;SDS011;9919;58.014;11.826;2023-06-01T12:54:46;2.50;;;0.40;;
19547;SDS011;9919;58.014;11.826;2023-06-01T12:56:50;0.30;;;0.30;;
19547;SDS011;9919;58.014;11.826;2023-06-01T12:58:53;0.20;;;0.20;;
19547;SDS011;9919;58.014;11.826;2023-06-01T13:00:56;0.40;;;0.40;;
19547;SDS011;9919;58.014;11.826;2023-06-01T13:02:58;1.77;;;0.65;;
19547;SDS011;9919;58.014;11.826;2023-06-01T13:05:00;0.13;;;0.13;;
19547;SDS011;9919;58.014;11.826;2023-06-01T13:07:04;0.55;;;0.40;;
19547;SDS011;9919;58.014;11.826;2023-06-01T13:09:06;0.30;;;0.30;;
19547;SDS011;9919;58.014;11.826;2023-06-01T13:11:08;1.45;;;0.30;;
19547;SDS011;9919;58.014;11.826;2023-06-01T13:13:10;0.40;;;0.40;;